Aviation Digital Data Service (ADDS)

Output produced by METARs form (0944 UTC 12 February 2016)
found at http://aviationweather.gov/adds/metars/
 
KAEX 120933Z AUTO 28005KT 9SM BKN009 14/13 A3015 RMK AO2 CIG 007V012 T01390133 TSNO